Time;durP1;ratioP1;P1;durP2;ratioP2;P2;SDS_P1;SDS_P2;PMS_P1;PMS_P2;Temp;Humidity;BMP_temperature;BMP_pressure;BME280_temperature;BME280_humidity;BME280_pressure;Samples;Min_cycle;Max_cycle;Signal;HPM_P1;HPM_P2
2023/09/29 00:01:25;;;;;;;30.25;7.75;;;;;;;;;;4982525;28;20038;-70
2023/09/29 00:03:51;;;;;;;24.67;5.90;;;;;;;;;;4983515;28;20034;-69
2023/09/29 00:06:18;;;;;;;26.08;6.93;;;;;;;;;;4983786;28;20062;-69
2023/09/29 00:08:45;;;;;;;19.17;6.47;;;;;;;;;;4982907;28;20034;-70
2023/09/29 00:11:16;;;;;;;28.20;7.07;;;;;;;;;;4985046;28;20038;-70
2023/09/29 00:13:42;;;;;;;25.40;6.53;;;;;;;;;;4967786;28;20037;-70
2023/09/29 00:16:08;;;;;;;28.15;7.68;;;;;;;;;;4979607;28;20034;-70
2023/09/29 00:18:34;;;;;;;24.35;6.03;;;;;;;;;;4975410;28;20483;-71
2023/09/29 00:21:00;;;;;;;29.88;7.00;;;;;;;;;;4985163;28;20078;-70
2023/09/29 00:23:26;;;;;;;20.65;6.40;;;;;;;;;;4978880;28;20058;-71
2023/09/29 00:25:53;;;;;;;20.63;5.65;;;;;;;;;;4981609;28;20038;-70
2023/09/29 00:28:20;;;;;;;25.83;5.78;;;;;;;;;;4982957;28;20039;-70
2023/09/29 00:30:46;;;;;;;26.95;6.03;;;;;;;;;;4988388;28;20034;-71
2023/09/29 00:33:14;;;;;;;26.63;5.75;;;;;;;;;;4987937;28;20030;-70
2023/09/29 00:35:40;;;;;;;23.10;6.13;;;;;;;;;;4985382;28;20034;-70
2023/09/29 00:38:07;;;;;;;29.48;5.80;;;;;;;;;;4986443;28;20141;-70
2023/09/29 00:40:33;;;;;;;23.95;6.40;;;;;;;;;;4970620;28;20050;-70
2023/09/29 00:42:59;;;;;;;21.15;5.28;;;;;;;;;;4986037;28;20054;-70
2023/09/29 00:45:26;;;;;;;22.25;5.53;;;;;;;;;;4987873;28;20531;-69
2023/09/29 00:47:57;;;;;;;28.38;5.28;;;;;;;;;;4981922;28;20056;-71
2023/09/29 00:50:23;;;;;;;21.80;5.65;;;;;;;;;;4986879;28;20039;-72
2023/09/29 00:52:51;;;;;;;24.73;5.32;;;;;;;;;;4986322;28;20039;-70
2023/09/29 00:55:22;;;;;;;22.35;5.95;;;;;;;;;;4985010;28;20039;-70
2023/09/29 00:57:48;;;;;;;26.80;5.50;;;;;;;;;;4987194;28;21228;-70
2023/09/29 01:00:36;;;;;;;25.70;5.82;;;;;;;;;;4981261;28;20035;-70
2023/09/29 01:03:08;;;;;;;19.17;5.53;;;;;;;;;;4980623;28;20038;-70
2023/09/29 01:05:38;;;;;;;31.70;5.43;;;;;;;;;;4986200;28;20022;-69
2023/09/29 01:08:08;;;;;;;19.80;5.53;;;;;;;;;;4986157;28;20046;-70
2023/09/29 01:10:38;;;;;;;27.85;5.32;;;;;;;;;;4979265;28;20864;-69
2023/09/29 01:13:05;;;;;;;20.45;6.10;;;;;;;;;;4985288;28;20030;-70
2023/09/29 01:15:34;;;;;;;27.70;7.35;;;;;;;;;;4987267;28;20030;-70
2023/09/29 01:18:01;;;;;;;28.90;5.57;;;;;;;;;;4986942;28;20034;-70
2023/09/29 01:20:28;;;;;;;19.13;5.25;;;;;;;;;;4985916;28;20042;-70
2023/09/29 01:23:05;;;;;;;21.40;5.10;;;;;;;;;;4985217;28;20045;-70
2023/09/29 01:25:32;;;;;;;20.83;5.32;;;;;;;;;;4984420;28;20041;-70
2023/09/29 01:27:58;;;;;;;29.13;5.80;;;;;;;;;;4981622;28;20037;-70
2023/09/29 01:30:27;;;;;;;23.33;5.45;;;;;;;;;;4984339;28;20031;-70
2023/09/29 01:32:53;;;;;;;17.92;5.15;;;;;;;;;;4979096;28;20030;-70
2023/09/29 01:35:23;;;;;;;24.10;5.57;;;;;;;;;;4986485;28;20152;-70
2023/09/29 01:37:53;;;;;;;20.02;5.30;;;;;;;;;;4980548;28;20038;-71
2023/09/29 01:40:23;;;;;;;21.33;5.90;;;;;;;;;;4984210;28;20037;-70
2023/09/29 01:42:50;;;;;;;23.27;5.22;;;;;;;;;;4987069;28;20414;-69
2023/09/29 01:45:16;;;;;;;21.67;5.50;;;;;;;;;;4986045;28;20030;-70
2023/09/29 01:47:45;;;;;;;32.85;6.93;;;;;;;;;;4986524;28;20029;-70
2023/09/29 01:50:13;;;;;;;22.02;5.38;;;;;;;;;;4984822;28;20053;-69
2023/09/29 01:52:39;;;;;;;23.08;5.07;;;;;;;;;;4983778;28;20034;-69
2023/09/29 01:55:09;;;;;;;20.10;5.20;;;;;;;;;;4981310;28;20039;-69
2023/09/29 01:57:35;;;;;;;21.85;5.15;;;;;;;;;;4987689;28;20037;-70
2023/09/29 02:00:02;;;;;;;21.83;5.05;;;;;;;;;;4977465;28;20022;-70
2023/09/29 02:02:39;;;;;;;23.95;6.43;;;;;;;;;;4978121;28;20135;-70
2023/09/29 02:05:07;;;;;;;22.73;5.50;;;;;;;;;;4968426;28;20085;-70
2023/09/29 02:07:33;;;;;;;26.90;6.53;;;;;;;;;;4988439;28;20466;-70
2023/09/29 02:09:59;;;;;;;20.27;4.97;;;;;;;;;;4986192;28;20030;-69
2023/09/29 02:12:26;;;;;;;22.58;5.32;;;;;;;;;;4985164;28;20080;-70
2023/09/29 02:14:52;;;;;;;24.33;5.97;;;;;;;;;;4977343;28;20057;-70
2023/09/29 02:17:18;;;;;;;22.52;6.30;;;;;;;;;;4999998;28;20178;-70
2023/09/29 02:19:46;;;;;;;26.67;6.13;;;;;;;;;;4976307;28;20068;-69
2023/09/29 02:22:16;;;;;;;25.70;6.03;;;;;;;;;;4984747;28;20389;-73
2023/09/29 02:24:43;;;;;;;20.30;5.60;;;;;;;;;;4979446;28;20074;-70
2023/09/29 02:27:10;;;;;;;19.42;5.28;;;;;;;;;;4982201;28;20053;-70
2023/09/29 02:29:36;;;;;;;21.88;5.45;;;;;;;;;;4982595;28;20034;-69
2023/09/29 02:32:02;;;;;;;22.48;5.70;;;;;;;;;;4986716;28;20026;-70
2023/09/29 02:34:28;;;;;;;21.42;5.45;;;;;;;;;;4984896;28;20042;-70
2023/09/29 02:36:55;;;;;;;27.05;6.35;;;;;;;;;;4979078;28;20022;-70
2023/09/29 02:39:21;;;;;;;22.55;5.53;;;;;;;;;;4985994;28;20165;-70
2023/09/29 02:41:48;;;;;;;22.75;5.70;;;;;;;;;;4976435;28;20030;-70
2023/09/29 02:44:14;;;;;;;21.67;5.80;;;;;;;;;;4982616;28;20092;-70
2023/09/29 02:46:40;;;;;;;19.88;5.40;;;;;;;;;;4983168;28;20430;-70
2023/09/29 02:49:07;;;;;;;22.15;5.50;;;;;;;;;;4980084;28;20042;-70
2023/09/29 02:51:33;;;;;;;26.20;6.43;;;;;;;;;;4983825;28;20133;-70
2023/09/29 02:53:59;;;;;;;20.60;5.32;;;;;;;;;;4985022;28;20125;-70
2023/09/29 02:56:26;;;;;;;19.65;6.28;;;;;;;;;;4971068;28;20435;-69
2023/09/29 02:58:54;;;;;;;17.67;5.40;;;;;;;;;;4984146;28;20035;-69
2023/09/29 03:01:20;;;;;;;21.52;5.45;;;;;;;;;;4953563;28;20122;-69
2023/09/29 03:03:47;;;;;;;19.52;5.53;;;;;;;;;;4983861;28;20061;-70
2023/09/29 03:06:23;;;;;;;19.95;5.40;;;;;;;;;;4980102;28;20057;-70
2023/09/29 03:08:58;;;;;;;20.70;4.70;;;;;;;;;;4983616;28;20469;-71
2023/09/29 03:11:25;;;;;;;16.98;5.53;;;;;;;;;;4982602;28;20376;-71
2023/09/29 03:13:54;;;;;;;21.27;5.03;;;;;;;;;;4978608;28;20022;-70
2023/09/29 03:16:26;;;;;;;19.75;4.80;;;;;;;;;;4985002;28;20034;-70
2023/09/29 03:18:55;;;;;;;21.15;5.32;;;;;;;;;;4983944;28;20030;-70
2023/09/29 03:21:22;;;;;;;26.17;5.88;;;;;;;;;;4981901;28;20045;-70
2023/09/29 03:23:48;;;;;;;18.75;4.88;;;;;;;;;;4966168;28;20087;-70
2023/09/29 03:26:17;;;;;;;29.98;6.13;;;;;;;;;;4980297;28;20042;-70
2023/09/29 03:28:44;;;;;;;28.27;6.18;;;;;;;;;;4969109;28;20023;-71
2023/09/29 03:31:10;;;;;;;27.38;5.90;;;;;;;;;;4984662;28;20034;-72
2023/09/29 03:33:36;;;;;;;17.70;5.65;;;;;;;;;;4984456;28;20332;-72
2023/09/29 03:36:03;;;;;;;28.02;6.63;;;;;;;;;;4978157;28;20038;-71
2023/09/29 03:38:30;;;;;;;31.92;7.68;;;;;;;;;;4983218;28;20125;-72
2023/09/29 03:40:56;;;;;;;21.33;7.55;;;;;;;;;;4963715;28;20049;-72
2023/09/29 03:43:23;;;;;;;27.92;7.22;;;;;;;;;;4980141;28;20104;-72
2023/09/29 03:45:53;;;;;;;26.52;8.00;;;;;;;;;;4977947;28;20060;-71
2023/09/29 03:48:20;;;;;;;20.27;7.20;;;;;;;;;;4980578;28;20034;-71
2023/09/29 03:50:49;;;;;;;22.80;7.82;;;;;;;;;;4976906;28;20034;-72
2023/09/29 03:53:16;;;;;;;25.50;8.30;;;;;;;;;;4983718;28;20080;-73
2023/09/29 03:55:46;;;;;;;20.80;7.20;;;;;;;;;;4971185;28;20046;-71
2023/09/29 03:58:14;;;;;;;23.27;7.70;;;;;;;;;;4983910;28;20054;-71
2023/09/29 04:00:41;;;;;;;21.80;7.57;;;;;;;;;;4973019;28;20030;-71
2023/09/29 04:03:07;;;;;;;23.48;8.57;;;;;;;;;;4985795;28;20061;-71
2023/09/29 04:05:33;;;;;;;24.95;7.93;;;;;;;;;;4984962;28;20035;-71
2023/09/29 04:08:01;;;;;;;22.98;8.32;;;;;;;;;;4986267;28;20034;-72
2023/09/29 04:10:28;;;;;;;24.00;7.85;;;;;;;;;;4980439;28;20046;-70
2023/09/29 04:12:54;;;;;;;24.55;7.70;;;;;;;;;;4977346;28;20030;-72
2023/09/29 04:15:20;;;;;;;24.38;8.63;;;;;;;;;;4987277;28;20522;-70
2023/09/29 04:17:46;;;;;;;30.95;9.10;;;;;;;;;;4981505;28;20038;-73
2023/09/29 04:20:13;;;;;;;27.75;8.20;;;;;;;;;;4981029;28;20037;-71
2023/09/29 04:22:39;;;;;;;25.10;8.10;;;;;;;;;;4986888;28;20062;-72
2023/09/29 04:25:09;;;;;;;27.65;8.00;;;;;;;;;;4984185;28;20228;-72
2023/09/29 04:27:36;;;;;;;24.92;8.00;;;;;;;;;;4976227;28;20386;-72
2023/09/29 04:30:03;;;;;;;22.73;7.57;;;;;;;;;;4984115;28;20034;-71
2023/09/29 04:32:29;;;;;;;26.27;8.73;;;;;;;;;;4987923;28;20092;-73
2023/09/29 04:34:55;;;;;;;23.10;7.43;;;;;;;;;;4978449;28;20282;-71
2023/09/29 04:37:21;;;;;;;19.25;7.32;;;;;;;;;;4986716;28;20399;-72
2023/09/29 04:39:48;;;;;;;21.25;8.57;;;;;;;;;;4985289;28;20211;-71
2023/09/29 04:42:14;;;;;;;22.05;8.18;;;;;;;;;;4978850;28;20723;-72
2023/09/29 04:44:44;;;;;;;23.08;7.47;;;;;;;;;;4985035;28;20039;-72
2023/09/29 04:47:11;;;;;;;23.17;7.68;;;;;;;;;;4989406;28;20487;-71
2023/09/29 04:49:37;;;;;;;23.05;7.70;;;;;;;;;;4978859;28;20046;-71
2023/09/29 04:52:03;;;;;;;16.35;6.93;;;;;;;;;;4985554;28;20028;-71
2023/09/29 04:54:29;;;;;;;19.00;6.82;;;;;;;;;;4983531;28;20600;-71
2023/09/29 04:56:56;;;;;;;23.08;7.43;;;;;;;;;;4991680;28;20026;-71
2023/09/29 04:59:22;;;;;;;18.05;7.40;;;;;;;;;;4987660;28;20282;-71
2023/09/29 05:01:48;;;;;;;12.13;6.65;;;;;;;;;;4980426;28;20034;-72
2023/09/29 05:04:14;;;;;;;19.90;7.18;;;;;;;;;;4986000;28;20097;-73
2023/09/29 05:06:40;;;;;;;21.52;7.03;;;;;;;;;;4987851;28;20117;-71
2023/09/29 05:09:09;;;;;;;22.77;7.00;;;;;;;;;;4986404;28;20509;-71
2023/09/29 05:11:35;;;;;;;13.68;6.80;;;;;;;;;;4974985;28;20027;-71
2023/09/29 05:14:01;;;;;;;17.45;6.80;;;;;;;;;;4985299;28;20049;-71
2023/09/29 05:16:27;;;;;;;15.38;7.10;;;;;;;;;;4980823;28;20057;-70
2023/09/29 05:18:54;;;;;;;21.92;6.97;;;;;;;;;;4985809;28;20180;-71
2023/09/29 05:21:20;;;;;;;15.65;5.95;;;;;;;;;;4995703;28;20049;-71
2023/09/29 05:23:46;;;;;;;19.58;6.47;;;;;;;;;;4980463;28;20058;-71
2023/09/29 05:26:12;;;;;;;15.15;5.65;;;;;;;;;;4981835;28;20103;-72
2023/09/29 05:28:39;;;;;;;14.55;6.05;;;;;;;;;;4986270;28;20038;-71
2023/09/29 05:31:05;;;;;;;16.45;5.80;;;;;;;;;;4979992;28;20049;-71
2023/09/29 05:33:31;;;;;;;16.10;5.43;;;;;;;;;;4980717;28;20492;-71
2023/09/29 05:35:59;;;;;;;13.82;5.50;;;;;;;;;;4975288;28;20130;-71
2023/09/29 05:38:25;;;;;;;13.63;5.50;;;;;;;;;;4982236;28;20027;-71
2023/09/29 05:40:51;;;;;;;9.63;5.22;;;;;;;;;;4980648;28;20057;-70
2023/09/29 05:43:18;;;;;;;11.13;4.78;;;;;;;;;;4982145;28;20780;-70
2023/09/29 05:45:47;;;;;;;11.57;5.05;;;;;;;;;;4985316;28;20577;-70
2023/09/29 05:48:14;;;;;;;11.98;5.70;;;;;;;;;;4976473;28;20046;-70
2023/09/29 05:50:40;;;;;;;12.50;4.70;;;;;;;;;;4983495;28;20034;-70
2023/09/29 05:53:06;;;;;;;12.23;4.80;;;;;;;;;;4982162;28;20416;-71
2023/09/29 05:55:33;;;;;;;11.95;4.70;;;;;;;;;;4986172;28;20035;-70
2023/09/29 05:57:59;;;;;;;13.18;4.57;;;;;;;;;;4986100;28;20030;-71
2023/09/29 06:00:26;;;;;;;11.18;4.35;;;;;;;;;;4982966;28;20129;-70
2023/09/29 06:02:53;;;;;;;9.45;4.07;;;;;;;;;;4956686;28;20037;-72
2023/09/29 06:05:20;;;;;;;10.38;4.50;;;;;;;;;;4984902;28;20026;-71
2023/09/29 06:07:47;;;;;;;14.45;4.72;;;;;;;;;;4982552;28;20023;-70
2023/09/29 06:10:13;;;;;;;9.30;4.15;;;;;;;;;;4981581;28;20113;-72
2023/09/29 06:12:39;;;;;;;7.07;3.78;;;;;;;;;;4984586;28;20101;-70
2023/09/29 06:15:06;;;;;;;16.00;5.55;;;;;;;;;;4982502;28;20238;-70
2023/09/29 06:17:32;;;;;;;10.82;3.72;;;;;;;;;;4987519;28;20034;-70
2023/09/29 06:19:59;;;;;;;11.40;4.32;;;;;;;;;;4984878;28;20041;-71
2023/09/29 06:22:25;;;;;;;11.05;4.88;;;;;;;;;;4985363;28;20026;-71
2023/09/29 06:24:52;;;;;;;10.85;3.83;;;;;;;;;;4987790;28;20050;-70
2023/09/29 06:27:18;;;;;;;10.77;4.55;;;;;;;;;;4983499;28;20041;-71
2023/09/29 06:29:46;;;;;;;10.75;3.95;;;;;;;;;;4980773;28;20077;-70
2023/09/29 06:32:13;;;;;;;11.75;4.40;;;;;;;;;;4988114;28;20108;-71
2023/09/29 06:34:39;;;;;;;9.40;4.50;;;;;;;;;;4981766;28;20030;-69
2023/09/29 06:37:05;;;;;;;12.05;3.88;;;;;;;;;;4986321;28;20092;-72
2023/09/29 06:39:31;;;;;;;13.00;4.55;;;;;;;;;;4986326;28;20038;-69
2023/09/29 06:41:57;;;;;;;8.05;4.05;;;;;;;;;;4982672;28;20152;-70
2023/09/29 06:44:24;;;;;;;12.48;4.40;;;;;;;;;;4988324;28;20523;-70
2023/09/29 06:46:50;;;;;;;10.95;5.10;;;;;;;;;;4989777;28;20057;-70
2023/09/29 06:49:16;;;;;;;7.53;3.97;;;;;;;;;;4989685;28;20031;-70
2023/09/29 06:51:42;;;;;;;10.07;4.22;;;;;;;;;;4985573;28;20112;-69
2023/09/29 06:54:08;;;;;;;11.63;4.38;;;;;;;;;;4990643;28;20026;-70
2023/09/29 06:56:34;;;;;;;11.30;4.53;;;;;;;;;;4986647;28;20485;-70
2023/09/29 06:59:00;;;;;;;14.05;4.82;;;;;;;;;;4984728;28;20487;-70
2023/09/29 07:01:27;;;;;;;13.30;4.05;;;;;;;;;;4985026;28;20044;-70
2023/09/29 07:03:54;;;;;;;9.25;4.57;;;;;;;;;;4982504;28;20053;-71
2023/09/29 07:06:25;;;;;;;9.45;4.03;;;;;;;;;;4988565;28;20045;-70
2023/09/29 07:08:52;;;;;;;8.70;4.10;;;;;;;;;;4990213;28;20463;-71
2023/09/29 07:11:18;;;;;;;8.10;4.03;;;;;;;;;;4981353;28;20038;-71
2023/09/29 07:13:45;;;;;;;9.73;4.72;;;;;;;;;;4990498;28;20057;-71
2023/09/29 07:16:11;;;;;;;7.82;3.90;;;;;;;;;;4989677;28;20049;-71
2023/09/29 07:18:37;;;;;;;10.90;4.25;;;;;;;;;;4989358;28;20038;-71
2023/09/29 07:21:04;;;;;;;14.90;4.10;;;;;;;;;;4995979;28;20254;-69
2023/09/29 07:23:33;;;;;;;8.13;3.80;;;;;;;;;;4989958;28;20043;-70
2023/09/29 07:25:59;;;;;;;8.60;4.22;;;;;;;;;;4973043;28;20055;-70
2023/09/29 07:28:26;;;;;;;12.15;4.13;;;;;;;;;;4991341;28;20096;-70
2023/09/29 07:30:52;;;;;;;8.23;3.92;;;;;;;;;;4989421;28;20069;-69
2023/09/29 07:33:18;;;;;;;10.15;3.95;;;;;;;;;;4987524;28;20046;-69
2023/09/29 07:35:44;;;;;;;14.80;4.35;;;;;;;;;;4990686;28;20042;-69
2023/09/29 07:38:12;;;;;;;6.30;3.97;;;;;;;;;;4975624;28;20389;-68
2023/09/29 07:40:38;;;;;;;11.80;3.95;;;;;;;;;;4990018;28;20089;-69
2023/09/29 07:43:05;;;;;;;11.30;3.95;;;;;;;;;;4986858;28;20129;-70
2023/09/29 07:45:34;;;;;;;6.47;3.50;;;;;;;;;;4978322;28;20038;-69
2023/09/29 07:48:00;;;;;;;10.27;3.83;;;;;;;;;;4977127;28;20050;-70
2023/09/29 07:50:26;;;;;;;6.85;3.58;;;;;;;;;;4990079;28;20480;-71
2023/09/29 07:52:53;;;;;;;9.50;3.65;;;;;;;;;;4997030;28;20049;-69
2023/09/29 07:55:19;;;;;;;8.10;3.78;;;;;;;;;;4987468;28;20696;-70
2023/09/29 07:57:45;;;;;;;10.90;4.07;;;;;;;;;;4990480;28;20030;-70
2023/09/29 08:00:12;;;;;;;10.30;3.90;;;;;;;;;;4989323;28;20030;-69
2023/09/29 08:02:39;;;;;;;9.32;3.78;;;;;;;;;;4970557;28;20138;-71
2023/09/29 08:05:07;;;;;;;11.98;4.28;;;;;;;;;;4990201;28;20031;-69
2023/09/29 08:07:33;;;;;;;9.43;4.53;;;;;;;;;;4987992;28;20027;-69
2023/09/29 08:10:00;;;;;;;10.88;4.22;;;;;;;;;;4991843;28;20184;-69
2023/09/29 08:12:26;;;;;;;12.50;4.93;;;;;;;;;;4989725;28;20035;-70
2023/09/29 08:14:52;;;;;;;14.70;4.90;;;;;;;;;;4990327;28;20034;-69
2023/09/29 08:17:21;;;;;;;14.55;5.10;;;;;;;;;;4988637;28;20141;-69
2023/09/29 08:19:48;;;;;;;12.52;4.47;;;;;;;;;;4989239;28;20046;-69
2023/09/29 08:22:14;;;;;;;10.60;5.07;;;;;;;;;;4987009;28;20093;-70
2023/09/29 08:24:40;;;;;;;14.38;4.40;;;;;;;;;;4978793;28;20033;-70
2023/09/29 08:27:06;;;;;;;10.63;5.22;;;;;;;;;;4988412;28;20049;-70
2023/09/29 08:29:32;;;;;;;15.70;4.78;;;;;;;;;;4986861;28;20034;-69
2023/09/29 08:32:00;;;;;;;13.95;5.05;;;;;;;;;;4965214;28;20117;-69
2023/09/29 08:34:34;;;;;;;8.80;4.18;;;;;;;;;;4986889;28;20029;-69
2023/09/29 08:37:00;;;;;;;12.15;4.22;;;;;;;;;;4988156;28;20031;-69
2023/09/29 08:39:26;;;;;;;10.10;4.47;;;;;;;;;;4983574;28;20030;-70
2023/09/29 08:42:04;;;;;;;8.40;4.00;;;;;;;;;;4983875;28;20050;-70
2023/09/29 08:44:33;;;;;;;11.73;4.13;;;;;;;;;;4988754;28;20097;-71
2023/09/29 08:47:00;;;;;;;11.20;4.30;;;;;;;;;;4983529;28;20498;-69
2023/09/29 08:49:27;;;;;;;8.70;3.92;;;;;;;;;;4989067;28;20061;-70
2023/09/29 08:51:55;;;;;;;7.25;4.10;;;;;;;;;;4990959;28;20045;-70
2023/09/29 08:54:21;;;;;;;9.73;4.00;;;;;;;;;;4990339;28;20030;-69
2023/09/29 08:56:48;;;;;;;8.80;4.10;;;;;;;;;;4990497;28;20034;-70
2023/09/29 08:59:15;;;;;;;9.52;3.95;;;;;;;;;;4993438;28;20510;-68
2023/09/29 09:01:42;;;;;;;12.18;4.78;;;;;;;;;;4983660;28;20079;-69
2023/09/29 09:04:08;;;;;;;14.52;4.60;;;;;;;;;;4993306;28;20057;-70
2023/09/29 09:06:34;;;;;;;9.57;4.00;;;;;;;;;;4992084;28;20042;-70
2023/09/29 09:09:00;;;;;;;14.13;5.03;;;;;;;;;;4986973;28;20041;-71
2023/09/29 09:11:27;;;;;;;14.35;4.57;;;;;;;;;;4987584;28;20569;-70
2023/09/29 09:14:04;;;;;;;9.98;4.03;;;;;;;;;;4990930;28;20042;-68
2023/09/29 09:16:36;;;;;;;11.90;4.57;;;;;;;;;;4988717;28;20041;-69
2023/09/29 09:19:09;;;;;;;10.85;3.97;;;;;;;;;;4983928;28;20054;-70
2023/09/29 09:21:35;;;;;;;8.57;3.85;;;;;;;;;;4994030;28;20045;-69
2023/09/29 09:24:01;;;;;;;9.52;4.55;;;;;;;;;;4992038;28;20038;-69
2023/09/29 09:26:28;;;;;;;10.50;3.63;;;;;;;;;;4990944;28;20042;-69
2023/09/29 09:28:54;;;;;;;6.75;3.40;;;;;;;;;;4991690;28;20438;-69
2023/09/29 09:31:21;;;;;;;9.68;3.40;;;;;;;;;;4974555;28;20133;-69
2023/09/29 09:33:50;;;;;;;9.73;3.45;;;;;;;;;;4980041;28;20100;-69
2023/09/29 09:36:16;;;;;;;6.40;3.05;;;;;;;;;;4992330;28;20507;-70
2023/09/29 09:38:43;;;;;;;10.35;3.35;;;;;;;;;;4981492;28;20068;-71
2023/09/29 09:41:10;;;;;;;11.38;3.60;;;;;;;;;;4985631;28;20178;-71
2023/09/29 09:43:38;;;;;;;9.63;3.47;;;;;;;;;;4986390;28;20534;-70
2023/09/29 09:46:12;;;;;;;11.35;3.67;;;;;;;;;;4993575;28;20038;-72
2023/09/29 09:48:49;;;;;;;6.82;2.60;;;;;;;;;;4993703;28;20084;-71
2023/09/29 09:51:18;;;;;;;13.50;3.45;;;;;;;;;;4990489;28;20034;-70
2023/09/29 09:53:44;;;;;;;11.40;3.70;;;;;;;;;;4998974;28;20023;-69
2023/09/29 09:56:20;;;;;;;7.30;2.95;;;;;;;;;;4998272;28;20038;-71
2023/09/29 09:58:49;;;;;;;9.02;3.47;;;;;;;;;;4986153;28;20098;-68
2023/09/29 10:01:15;;;;;;;7.07;3.17;;;;;;;;;;4986126;28;20513;-69
2023/09/29 10:03:41;;;;;;;7.53;3.10;;;;;;;;;;4991021;28;20053;-69
2023/09/29 10:06:09;;;;;;;13.25;3.28;;;;;;;;;;4990835;28;20034;-69
2023/09/29 10:08:35;;;;;;;9.00;3.53;;;;;;;;;;4989486;28;20068;-69
2023/09/29 10:11:23;;;;;;;10.68;3.55;;;;;;;;;;4988471;28;20053;-71
2023/09/29 10:13:50;;;;;;;10.40;3.25;;;;;;;;;;4982607;28;20121;-70
2023/09/29 10:16:25;;;;;;;11.25;3.50;;;;;;;;;;4992234;28;20034;-70
2023/09/29 10:19:05;;;;;;;7.38;3.10;;;;;;;;;;4988396;28;20045;-69
2023/09/29 10:21:40;;;;;;;9.27;3.45;;;;;;;;;;4988840;28;20034;-69
2023/09/29 10:24:07;;;;;;;7.82;3.30;;;;;;;;;;4985416;28;20065;-69
2023/09/29 10:26:45;;;;;;;6.60;3.60;;;;;;;;;;4992942;28;20047;-71
2023/09/29 10:29:28;;;;;;;7.63;3.60;;;;;;;;;;4990155;28;20033;-70
2023/09/29 10:32:16;;;;;;;9.13;3.92;;;;;;;;;;4987979;28;20026;-70
2023/09/29 10:34:42;;;;;;;12.32;4.22;;;;;;;;;;4989556;28;20195;-68
2023/09/29 10:37:09;;;;;;;8.75;3.65;;;;;;;;;;4987156;28;20023;-69
2023/09/29 10:39:36;;;;;;;8.10;4.25;;;;;;;;;;4986124;28;20652;-69
2023/09/29 10:42:12;;;;;;;9.32;4.20;;;;;;;;;;4991425;28;20623;-69
2023/09/29 10:44:44;;;;;;;8.30;4.30;;;;;;;;;;4982075;28;20046;-69
2023/09/29 10:47:14;;;;;;;6.45;3.90;;;;;;;;;;4989549;28;20026;-69
2023/09/29 10:49:46;;;;;;;10.98;4.78;;;;;;;;;;4989461;28;20038;-69
2023/09/29 10:52:22;;;;;;;10.13;4.97;;;;;;;;;;4989925;28;20054;-74
2023/09/29 10:54:56;;;;;;;13.88;5.35;;;;;;;;;;4990434;28;20022;-71
2023/09/29 10:57:23;;;;;;;9.93;5.85;;;;;;;;;;5006080;28;20037;-71
2023/09/29 10:59:49;;;;;;;16.60;7.20;;;;;;;;;;5002882;28;20053;-70
2023/09/29 11:02:16;;;;;;;8.90;6.15;;;;;;;;;;4997115;28;20112;-70
2023/09/29 11:04:46;;;;;;;7.22;4.57;;;;;;;;;;4981782;28;20018;-71
2023/09/29 11:07:15;;;;;;;8.45;5.30;;;;;;;;;;4988955;28;20034;-70
2023/09/29 11:09:41;;;;;;;6.75;5.28;;;;;;;;;;4987104;28;20057;-71
2023/09/29 11:12:17;;;;;;;10.85;4.32;;;;;;;;;;4984010;28;20459;-71
2023/09/29 11:14:43;;;;;;;6.53;3.40;;;;;;;;;;4985764;28;20023;-71
2023/09/29 11:17:10;;;;;;;9.98;3.40;;;;;;;;;;4988667;28;20491;-70
2023/09/29 11:19:36;;;;;;;9.00;2.55;;;;;;;;;;4988218;28;20065;-70
2023/09/29 11:22:05;;;;;;;10.35;3.22;;;;;;;;;;4983653;28;20415;-71
2023/09/29 11:24:42;;;;;;;10.60;2.35;;;;;;;;;;4984187;28;20492;-70
2023/09/29 11:27:08;;;;;;;10.55;2.20;;;;;;;;;;4988109;28;20038;-70
2023/09/29 11:29:34;;;;;;;9.10;2.35;;;;;;;;;;4990631;28;20495;-70
2023/09/29 11:32:01;;;;;;;12.57;2.40;;;;;;;;;;4980535;28;20076;-70
2023/09/29 11:34:29;;;;;;;10.65;2.42;;;;;;;;;;4989173;28;20041;-70
2023/09/29 11:36:56;;;;;;;7.55;2.10;;;;;;;;;;4988799;28;20038;-70
2023/09/29 11:39:22;;;;;;;7.70;2.03;;;;;;;;;;4985492;28;20026;-70
2023/09/29 11:41:49;;;;;;;8.43;2.03;;;;;;;;;;4988761;28;20053;-72
2023/09/29 11:44:16;;;;;;;10.25;2.33;;;;;;;;;;4978401;28;21913;-69
2023/09/29 11:46:43;;;;;;;12.75;2.50;;;;;;;;;;4979419;28;20043;-70
2023/09/29 11:49:11;;;;;;;5.30;2.20;;;;;;;;;;4980146;28;20038;-70
2023/09/29 11:51:37;;;;;;;8.65;2.05;;;;;;;;;;4987653;28;20030;-70
2023/09/29 11:54:04;;;;;;;11.43;2.60;;;;;;;;;;4986490;28;20029;-71
2023/09/29 11:56:30;;;;;;;11.25;2.13;;;;;;;;;;4987458;28;20034;-71
2023/09/29 11:58:56;;;;;;;7.07;2.00;;;;;;;;;;4988805;28;20057;-70
2023/09/29 12:01:22;;;;;;;4.40;1.60;;;;;;;;;;4988715;28;20046;-71
2023/09/29 12:03:49;;;;;;;7.47;1.80;;;;;;;;;;4989402;28;20030;-70
2023/09/29 12:06:15;;;;;;;11.63;2.40;;;;;;;;;;4988564;28;20121;-69
2023/09/29 12:08:41;;;;;;;6.93;1.77;;;;;;;;;;4989839;28;20038;-70
2023/09/29 12:11:07;;;;;;;6.57;1.48;;;;;;;;;;4988834;28;20040;-69
2023/09/29 12:13:36;;;;;;;6.05;1.45;;;;;;;;;;4988796;28;20079;-73
2023/09/29 12:16:05;;;;;;;11.10;1.48;;;;;;;;;;4988984;28;20112;-70
2023/09/29 12:18:33;;;;;;;11.45;1.80;;;;;;;;;;4986103;28;20041;-70
2023/09/29 12:20:59;;;;;;;8.02;2.20;;;;;;;;;;4986136;28;20039;-70
2023/09/29 12:23:27;;;;;;;6.25;1.85;;;;;;;;;;4984612;28;20066;-70
2023/09/29 12:25:53;;;;;;;12.90;3.05;;;;;;;;;;4976518;28;20031;-70
2023/09/29 12:28:19;;;;;;;6.38;2.20;;;;;;;;;;4984935;28;20511;-70
2023/09/29 12:30:45;;;;;;;7.00;1.73;;;;;;;;;;4987741;28;20035;-69
2023/09/29 12:33:12;;;;;;;6.55;2.08;;;;;;;;;;4986163;28;20022;-70
2023/09/29 12:35:38;;;;;;;8.30;1.80;;;;;;;;;;4975947;28;20022;-70
2023/09/29 12:38:05;;;;;;;11.52;2.25;;;;;;;;;;4987164;28;20037;-71
2023/09/29 12:40:32;;;;;;;11.52;2.42;;;;;;;;;;4993613;28;20026;-70
2023/09/29 12:43:00;;;;;;;8.48;2.10;;;;;;;;;;4991202;28;20133;-69
2023/09/29 12:45:26;;;;;;;11.63;2.85;;;;;;;;;;4992895;28;20058;-70
2023/09/29 12:47:58;;;;;;;10.27;2.70;;;;;;;;;;4982786;28;20054;-71
2023/09/29 12:50:24;;;;;;;9.75;2.42;;;;;;;;;;4991225;28;20053;-69
2023/09/29 12:52:52;;;;;;;17.00;3.63;;;;;;;;;;4993365;28;20035;-70
2023/09/29 12:55:18;;;;;;;8.45;2.42;;;;;;;;;;4982355;28;20030;-70
2023/09/29 12:57:44;;;;;;;13.60;2.63;;;;;;;;;;4990554;28;20322;-70
2023/09/29 13:00:19;;;;;;;13.52;2.90;;;;;;;;;;4993281;28;20045;-70
2023/09/29 13:02:51;;;;;;;15.23;2.97;;;;;;;;;;5007609;28;20034;-72
2023/09/29 13:05:18;;;;;;;11.82;3.15;;;;;;;;;;4995582;28;20034;-72
2023/09/29 13:07:49;;;;;;;18.55;3.35;;;;;;;;;;4990642;28;20403;-70
2023/09/29 13:10:15;;;;;;;10.63;3.10;;;;;;;;;;4983966;28;20035;-70
2023/09/29 13:12:42;;;;;;;15.60;3.35;;;;;;;;;;4979825;28;20030;-70
2023/09/29 13:15:08;;;;;;;13.10;3.20;;;;;;;;;;4988385;28;20503;-70
2023/09/29 13:17:35;;;;;;;12.68;3.58;;;;;;;;;;4986514;28;20038;-70
2023/09/29 13:20:01;;;;;;;14.40;3.15;;;;;;;;;;4988195;28;20065;-70
2023/09/29 13:22:27;;;;;;;11.35;3.20;;;;;;;;;;4985272;28;20126;-71
2023/09/29 13:24:54;;;;;;;22.45;4.47;;;;;;;;;;4982585;28;20042;-70
2023/09/29 13:27:20;;;;;;;19.63;4.45;;;;;;;;;;4982641;28;20034;-70
2023/09/29 13:29:50;;;;;;;20.40;3.92;;;;;;;;;;4984621;28;20030;-70
2023/09/29 13:32:16;;;;;;;14.10;3.70;;;;;;;;;;4986835;28;20030;-69
2023/09/29 13:34:42;;;;;;;21.40;4.10;;;;;;;;;;4985630;28;20022;-69
2023/09/29 13:37:09;;;;;;;21.10;4.03;;;;;;;;;;4980144;28;20037;-69
2023/09/29 13:39:35;;;;;;;23.35;4.75;;;;;;;;;;4984157;28;20038;-70
2023/09/29 13:42:04;;;;;;;15.75;3.97;;;;;;;;;;4983578;28;20463;-70
2023/09/29 13:44:30;;;;;;;27.90;4.55;;;;;;;;;;4985470;28;20058;-71
2023/09/29 13:46:56;;;;;;;22.83;4.75;;;;;;;;;;4989538;28;20031;-70
2023/09/29 13:49:22;;;;;;;20.75;4.18;;;;;;;;;;4987555;28;20161;-69
2023/09/29 13:51:48;;;;;;;17.40;3.40;;;;;;;;;;4988362;28;20038;-70
2023/09/29 13:54:14;;;;;;;16.48;3.65;;;;;;;;;;4980186;28;20085;-70
2023/09/29 13:56:40;;;;;;;11.63;3.65;;;;;;;;;;4988300;28;20041;-70
2023/09/29 13:59:06;;;;;;;12.95;3.45;;;;;;;;;;4969735;28;20037;-70
2023/09/29 14:01:33;;;;;;;17.05;3.85;;;;;;;;;;4986449;28;20042;-70
2023/09/29 14:04:01;;;;;;;16.50;4.13;;;;;;;;;;4987485;28;20041;-70
2023/09/29 14:06:28;;;;;;;20.60;3.78;;;;;;;;;;4988505;28;20528;-70
2023/09/29 14:08:54;;;;;;;14.60;3.47;;;;;;;;;;4987224;28;20395;-70
2023/09/29 14:11:21;;;;;;;17.65;4.10;;;;;;;;;;4976657;28;20026;-71
2023/09/29 14:13:47;;;;;;;15.23;3.78;;;;;;;;;;4984607;28;20097;-70
2023/09/29 14:16:15;;;;;;;13.60;3.15;;;;;;;;;;4983817;28;20030;-70
2023/09/29 14:18:42;;;;;;;14.98;3.30;;;;;;;;;;4995102;28;20030;-72
2023/09/29 14:21:08;;;;;;;12.05;3.45;;;;;;;;;;4985262;28;20376;-70
2023/09/29 14:23:35;;;;;;;15.82;3.95;;;;;;;;;;4985662;28;20072;-71
2023/09/29 14:26:01;;;;;;;10.35;3.20;;;;;;;;;;4984922;28;20034;-70
2023/09/29 14:28:27;;;;;;;9.82;2.72;;;;;;;;;;4967733;28;20045;-70
2023/09/29 14:30:54;;;;;;;10.18;2.75;;;;;;;;;;4969607;28;20053;-71
2023/09/29 14:33:20;;;;;;;13.52;3.05;;;;;;;;;;4988407;28;20434;-70
2023/09/29 14:35:46;;;;;;;12.88;2.40;;;;;;;;;;4991032;28;20483;-70